createdAt,value
2018-04-28T00:01:45.961Z,14.89
2018-04-28T00:04:12.661Z,14.32
2018-04-28T00:06:39.213Z,14.39
2018-04-28T00:09:06.815Z,14.51
2018-04-28T00:11:33.859Z,14.67
2018-04-28T00:14:00.501Z,14.58
2018-04-28T00:16:29.879Z,14.65
2018-04-28T00:19:04.218Z,14.69
2018-04-28T00:21:36.456Z,14.70
2018-04-28T00:24:03.030Z,14.68
2018-04-28T00:26:29.601Z,14.63
2018-04-28T00:29:00.877Z,14.55
2018-04-28T00:31:55.923Z,14.48
2018-04-28T00:34:22.488Z,14.32
2018-04-28T00:39:47.053Z,14.83
2018-04-28T00:42:14.683Z,14.76
2018-04-28T00:44:41.521Z,14.69
2018-04-28T00:47:09.111Z,14.42
2018-04-28T00:52:31.718Z,14.31
2018-04-28T00:54:58.301Z,13.93
2018-04-28T01:00:30.045Z,13.86
2018-04-28T01:02:56.635Z,13.49
2018-04-28T01:05:26.937Z,13.65
2018-04-28T01:07:54.505Z,13.76
2018-04-28T01:10:21.357Z,14.11
2018-04-28T01:12:49.070Z,14.24
2018-04-28T01:15:34.435Z,13.89
2018-04-28T01:21:08.789Z,13.96
2018-04-28T01:23:52.991Z,14.15
2018-04-28T01:26:25.190Z,13.87
2018-04-28T01:28:53.767Z,13.96
2018-04-28T01:31:23.224Z,14.03
2018-04-28T01:33:57.912Z,14.05
2018-04-28T01:36:26.491Z,14.18
2018-04-28T01:38:53.056Z,14.39
2018-04-28T01:41:41.747Z,14.39
2018-04-28T01:44:09.308Z,14.37
2018-04-28T01:49:31.857Z,14.18
2018-04-28T01:51:58.658Z,14.14
2018-04-28T01:54:36.105Z,13.95
2018-04-28T02:00:02.791Z,14.11
2018-04-28T02:08:38.450Z,14.06
2018-04-28T02:11:07.031Z,13.95
2018-04-28T02:13:40.460Z,14.10
2018-04-28T02:16:12.963Z,13.72
2018-04-28T02:18:40.454Z,13.96
2018-04-28T02:21:25.999Z,14.18
2018-04-28T02:24:06.960Z,14.20
2018-04-28T02:26:38.433Z,14.08
2018-04-28T02:29:05.891Z,13.56
2018-04-28T02:31:44.366Z,13.82
2018-04-28T02:34:15.861Z,13.82
2018-04-28T02:36:52.305Z,13.91
2018-04-28T02:39:51.609Z,13.54
2018-04-28T02:42:30.091Z,13.32
2018-04-28T02:45:03.455Z,13.32
2018-04-28T02:47:29.996Z,13.64
2018-04-28T02:50:06.761Z,13.81
2018-04-28T02:52:43.191Z,13.38
2018-04-28T02:58:14.739Z,13.53
2018-04-28T03:00:53.223Z,13.37
2018-04-28T03:03:20.058Z,13.40
2018-04-28T03:05:47.420Z,13.28
2018-04-28T03:08:14.773Z,13.38
2018-04-28T03:10:55.641Z,13.40
2018-04-28T03:13:24.698Z,13.46
2018-04-28T03:15:56.284Z,13.59
2018-04-28T03:18:22.702Z,13.60
2018-04-28T03:21:00.584Z,13.76
2018-04-28T03:23:29.975Z,13.70
2018-04-28T03:25:56.434Z,13.76
2018-04-28T03:28:38.575Z,13.85
2018-04-28T03:31:10.860Z,13.94
2018-04-28T03:33:40.040Z,13.91
2018-04-28T03:39:05.749Z,14.14
2018-04-28T03:41:32.221Z,14.16
2018-04-28T03:44:03.508Z,14.14
2018-04-28T03:46:35.036Z,14.19
2018-04-28T03:49:02.371Z,14.19
2018-04-28T03:51:34.823Z,14.28
2018-04-28T03:54:04.152Z,14.23
2018-04-28T03:56:31.350Z,14.44
2018-04-28T03:59:09.729Z,14.64
2018-04-28T04:01:49.146Z,14.73
2018-04-28T04:04:21.168Z,14.68
2018-04-28T04:09:58.290Z,15.26
2018-04-28T04:15:39.301Z,15.22
2018-04-28T04:18:13.609Z,15.47
2018-04-28T04:20:52.794Z,15.31
2018-04-28T04:23:26.084Z,15.22
2018-04-28T04:26:03.277Z,15.20
2018-04-28T04:34:49.528Z,15.99
2018-04-28T04:43:28.226Z,16.08
2018-04-28T04:46:03.263Z,16.15
2018-04-28T04:51:33.927Z,16.54
2018-04-28T04:54:10.299Z,16.79
2018-04-28T04:56:44.464Z,17.11
2018-04-28T04:59:20.987Z,17.32
2018-04-28T05:01:47.431Z,17.08
2018-04-28T05:07:16.023Z,17.40
2018-04-28T05:09:45.123Z,17.62
2018-04-28T05:12:22.487Z,17.64
2018-04-28T05:15:07.690Z,17.71
2018-04-28T05:21:02.560Z,18.03
2018-04-28T05:23:41.207Z,17.86
2018-04-28T05:26:19.626Z,18.02
2018-04-28T05:28:58.065Z,18.01
2018-04-28T05:31:37.067Z,18.04
2018-04-28T05:34:16.534Z,18.28
2018-04-28T05:36:54.734Z,18.34
2018-04-28T05:39:33.334Z,18.69
2018-04-28T05:42:26.495Z,18.73
2018-04-28T05:48:17.633Z,18.71
2018-04-28T05:50:55.798Z,18.44
2018-04-28T05:53:34.179Z,18.43
2018-04-28T05:59:14.198Z,18.90
2018-04-28T06:01:52.154Z,19.20
2018-04-28T06:04:30.709Z,19.62
2018-04-28T06:10:21.293Z,19.06
2018-04-28T06:12:57.500Z,19.36
2018-04-28T06:18:32.819Z,19.07
2018-04-28T06:21:05.431Z,19.37
2018-04-28T06:23:31.991Z,19.38
2018-04-28T06:25:58.614Z,19.51
2018-04-28T06:28:25.742Z,19.76
2018-04-28T06:30:55.450Z,19.17
2018-04-28T06:33:21.896Z,19.49
2018-04-28T06:35:48.409Z,19.74
2018-04-28T06:38:15.846Z,19.33
2018-04-28T06:40:46.473Z,19.66
2018-04-28T06:43:13.161Z,20.02
2018-04-28T06:45:40.612Z,19.81
2018-04-28T06:48:07.066Z,19.74
2018-04-28T06:50:36.863Z,19.79
2018-04-28T06:53:03.818Z,19.99
2018-04-28T06:55:30.442Z,19.55
2018-04-28T06:57:56.994Z,19.93
2018-04-28T07:00:23.715Z,19.90
2018-04-28T07:02:50.206Z,19.98
2018-04-28T07:05:16.701Z,19.99
2018-04-28T07:07:43.972Z,19.89
2018-04-28T07:10:14.370Z,19.55
2018-04-28T07:12:40.902Z,19.78
2018-04-28T07:15:07.512Z,20.00
2018-04-28T07:17:34.078Z,20.26
2018-04-28T07:20:03.953Z,20.42
2018-04-28T07:22:30.577Z,20.39
2018-04-28T07:24:57.181Z,20.56
2018-04-28T07:27:23.658Z,20.40
2018-04-28T07:29:50.110Z,20.10
2018-04-28T07:32:16.622Z,20.27
2018-04-28T07:34:43.158Z,20.05
2018-04-28T07:37:09.634Z,20.47
2018-04-28T07:39:39.579Z,20.34
2018-04-28T07:42:06.075Z,20.53
2018-04-28T07:44:32.453Z,20.76
2018-04-28T07:46:58.983Z,20.83
2018-04-28T07:49:26.546Z,20.77
2018-04-28T07:51:53.114Z,20.76
2018-04-28T07:54:19.646Z,20.95
2018-04-28T07:56:46.258Z,20.68
2018-04-28T07:59:14.028Z,20.91
2018-04-28T08:01:40.473Z,20.92
2018-04-28T08:04:07.673Z,21.23
2018-04-28T08:06:34.141Z,20.90
2018-04-28T08:09:00.642Z,20.93
2018-04-28T08:11:26.994Z,20.98
2018-04-28T08:13:53.414Z,21.21
2018-04-28T08:16:19.936Z,21.59
2018-04-28T08:18:46.557Z,21.04
2018-04-28T08:21:23.309Z,20.86
2018-04-28T08:23:49.887Z,20.67
2018-04-28T08:26:16.347Z,20.81
2018-04-28T08:28:42.699Z,21.03
2018-04-28T08:31:10.242Z,21.13
2018-04-28T08:33:37.327Z,21.17
2018-04-28T08:36:03.961Z,21.16
2018-04-28T08:38:30.602Z,21.39
2018-04-28T08:41:00.754Z,21.69
2018-04-28T08:43:27.241Z,20.99
2018-04-28T08:45:53.791Z,21.44
2018-04-28T08:48:20.396Z,20.61
2018-04-28T08:50:50.253Z,21.28
2018-04-28T08:53:16.778Z,21.61
2018-04-28T08:55:43.384Z,21.01
2018-04-28T08:58:09.879Z,21.32
2018-04-28T09:00:40.525Z,21.45
2018-04-28T09:03:07.255Z,21.55
2018-04-28T09:05:33.806Z,21.93
2018-04-28T09:08:00.488Z,21.54
2018-04-28T09:10:27.292Z,21.21
2018-04-28T09:12:54.307Z,21.33
2018-04-28T09:15:20.893Z,21.65
2018-04-28T09:17:47.651Z,21.94
2018-04-28T09:20:14.299Z,21.37
2018-04-28T09:22:41.173Z,21.73
2018-04-28T09:25:08.202Z,21.87
2018-04-28T09:27:34.911Z,21.52
2018-04-28T09:30:02.550Z,21.43
2018-04-28T09:32:29.204Z,21.49
2018-04-28T09:34:56.246Z,21.44
2018-04-28T09:37:23.469Z,22.27
2018-04-28T09:39:57.874Z,22.05
2018-04-28T09:42:24.533Z,21.78
2018-04-28T09:44:52.260Z,21.45
2018-04-28T09:47:19.062Z,21.87
2018-04-28T09:49:46.800Z,21.99
2018-04-28T09:52:13.444Z,22.52
2018-04-28T09:54:40.215Z,22.13
2018-04-28T09:57:06.747Z,21.91
2018-04-28T09:59:34.622Z,22.33
2018-04-28T10:02:07.185Z,22.01
2018-04-28T10:04:34.233Z,22.77
2018-04-28T10:07:00.901Z,22.84
2018-04-28T10:09:32.898Z,22.77
2018-04-28T10:11:59.611Z,23.04
2018-04-28T10:14:26.629Z,22.57
2018-04-28T10:16:53.422Z,22.95
2018-04-28T10:19:21.235Z,22.58
2018-04-28T10:21:47.900Z,22.70
2018-04-28T10:24:14.454Z,23.03
2018-04-28T10:26:41.226Z,22.98
2018-04-28T10:29:11.876Z,22.85
2018-04-28T10:31:38.420Z,22.77
2018-04-28T10:34:04.998Z,23.03
2018-04-28T10:36:31.747Z,23.21
2018-04-28T10:39:01.619Z,23.05
2018-04-28T10:41:28.297Z,23.39
2018-04-28T10:43:54.990Z,23.05
2018-04-28T10:46:21.682Z,23.60
2018-04-28T10:48:48.573Z,24.07
2018-04-28T10:51:15.099Z,23.39
2018-04-28T10:53:41.969Z,23.81
2018-04-28T10:56:08.858Z,24.13
2018-04-28T10:58:35.957Z,24.27
2018-04-28T11:01:02.593Z,24.51
2018-04-28T11:03:29.380Z,24.13
2018-04-28T11:05:55.956Z,23.03
2018-04-28T11:08:22.996Z,22.28
2018-04-28T11:10:54.832Z,23.39
2018-04-28T11:13:21.777Z,24.23
2018-04-28T11:15:49.369Z,23.12
2018-04-28T11:18:15.966Z,23.09
2018-04-28T11:20:45.768Z,23.18
2018-04-28T11:23:12.438Z,21.84
2018-04-28T11:25:39.276Z,20.59
2018-04-28T11:28:06.201Z,23.32
2018-04-28T11:30:36.189Z,23.91
2018-04-28T11:33:03.332Z,23.18
2018-04-28T11:35:30.006Z,23.47
2018-04-28T11:37:56.708Z,23.40
2018-04-28T11:40:29.627Z,23.15
2018-04-28T11:42:56.128Z,23.00
2018-04-28T11:45:23.355Z,23.19
2018-04-28T11:47:50.128Z,21.93
2018-04-28T11:50:22.069Z,23.15
2018-04-28T11:52:49.001Z,23.84
2018-04-28T11:55:15.689Z,24.37
2018-04-28T11:57:42.436Z,23.79
2018-04-28T12:00:21.759Z,24.05
2018-04-28T12:02:48.546Z,23.46
2018-04-28T12:05:15.224Z,23.08
2018-04-28T12:07:42.522Z,22.90
2018-04-28T12:10:12.284Z,23.07
2018-04-28T12:12:38.993Z,23.68
2018-04-28T12:15:05.516Z,23.07
2018-04-28T12:17:32.205Z,23.78
2018-04-28T12:19:59.909Z,24.08
2018-04-28T12:22:26.560Z,24.06
2018-04-28T12:24:53.700Z,23.97
2018-04-28T12:27:20.273Z,24.21
2018-04-28T12:29:51.170Z,23.19
2018-04-28T12:32:17.841Z,24.09
2018-04-28T12:34:44.534Z,23.18
2018-04-28T12:37:11.278Z,22.89
2018-04-28T12:39:41.457Z,23.87
2018-04-28T12:42:08.425Z,24.44
2018-04-28T12:44:35.138Z,23.34
2018-04-28T12:47:02.558Z,23.67
2018-04-28T12:49:30.756Z,24.13
2018-04-28T12:51:57.281Z,24.67
2018-04-28T12:54:24.212Z,24.30
2018-04-28T12:56:50.857Z,23.28
2018-04-28T12:59:27.878Z,23.65
2018-04-28T13:01:54.471Z,23.45
2018-04-28T13:04:21.065Z,23.98
2018-04-28T13:06:47.726Z,23.85
2018-04-28T13:09:14.564Z,25.27
2018-04-28T13:11:41.550Z,23.95
2018-04-28T13:14:08.221Z,22.84
2018-04-28T13:16:34.850Z,23.43
2018-04-28T13:19:01.752Z,23.41
2018-04-28T13:21:28.433Z,23.49
2018-04-28T13:23:55.166Z,22.14
2018-04-28T13:26:22.089Z,23.21
2018-04-28T13:28:54.910Z,24.43
2018-04-28T13:31:21.614Z,24.27
2018-04-28T13:33:48.354Z,22.82
2018-04-28T13:36:15.101Z,22.64
2018-04-28T13:38:42.859Z,23.12
2018-04-28T13:41:09.527Z,24.30
2018-04-28T13:43:36.713Z,23.71
2018-04-28T13:46:03.328Z,23.93
2018-04-28T13:48:31.931Z,23.66
2018-04-28T13:50:58.760Z,24.09
2018-04-28T13:53:25.397Z,23.96
2018-04-28T13:55:51.983Z,23.88
2018-04-28T13:58:24.442Z,24.21
2018-04-28T14:00:51.406Z,23.24
2018-04-28T14:03:18.033Z,22.92
2018-04-28T14:05:44.643Z,22.62
2018-04-28T14:08:11.416Z,22.77
2018-04-28T14:10:38.147Z,22.86
2018-04-28T14:13:04.776Z,23.14
2018-04-28T14:15:31.450Z,23.03
2018-04-28T14:17:58.056Z,23.79
2018-04-28T14:20:35.460Z,22.88
2018-04-28T14:23:02.124Z,22.86
2018-04-28T14:25:28.815Z,22.81
2018-04-28T14:27:55.498Z,22.99
2018-04-28T14:30:23.434Z,23.81
2018-04-28T14:32:49.970Z,24.56
2018-04-28T14:35:16.486Z,23.96
2018-04-28T14:37:43.867Z,22.70
2018-04-28T14:40:11.774Z,22.78
2018-04-28T14:42:39.422Z,22.73
2018-04-28T14:45:06.165Z,23.56
2018-04-28T14:47:32.797Z,23.25
2018-04-28T14:50:04.606Z,22.44
2018-04-28T14:52:31.296Z,22.05
2018-04-28T14:54:58.284Z,22.66
2018-04-28T14:57:25.259Z,21.70
2018-04-28T14:59:52.141Z,23.23
2018-04-28T15:02:18.796Z,23.07
2018-04-28T15:04:45.527Z,22.10
2018-04-28T15:07:12.079Z,22.89
2018-04-28T15:09:41.880Z,22.70
2018-04-28T15:12:08.513Z,22.54
2018-04-28T15:14:35.199Z,22.84
2018-04-28T15:17:02.448Z,22.03
2018-04-28T15:19:30.213Z,22.56
2018-04-28T15:21:56.760Z,22.66
2018-04-28T15:24:23.495Z,24.28
2018-04-28T15:26:50.637Z,24.02
2018-04-28T15:29:20.408Z,25.55
2018-04-28T15:31:47.770Z,26.28
2018-04-28T15:34:14.702Z,25.47
2018-04-28T15:36:41.258Z,24.83
2018-04-28T15:39:13.542Z,24.53
2018-04-28T15:41:40.277Z,25.81
2018-04-28T15:44:07.556Z,24.95
2018-04-28T15:46:34.135Z,26.06
2018-04-28T15:49:08.122Z,25.12
2018-04-28T15:51:34.843Z,24.96
2018-04-28T15:54:01.464Z,23.95
2018-04-28T15:56:28.119Z,23.38
2018-04-28T15:58:55.833Z,25.64
2018-04-28T16:01:22.438Z,26.15
2018-04-28T16:03:49.986Z,24.02
2018-04-28T16:06:16.534Z,25.28
2018-04-28T16:08:43.381Z,24.19
2018-04-28T16:11:10.030Z,23.49
2018-04-28T16:13:37.449Z,23.38
2018-04-28T16:16:04.205Z,23.13
2018-04-28T16:18:38.594Z,22.66
2018-04-28T16:21:05.266Z,22.02
2018-04-28T16:23:32.479Z,21.59
2018-04-28T16:25:59.139Z,20.37
2018-04-28T16:28:28.788Z,20.22
2018-04-28T16:30:55.402Z,19.99
2018-04-28T16:33:22.154Z,20.17
2018-04-28T16:35:48.857Z,19.50
2018-04-28T16:38:19.097Z,19.29
2018-04-28T16:40:46.100Z,19.17
2018-04-28T16:43:12.719Z,19.28
2018-04-28T16:45:39.468Z,18.97
2018-04-28T16:48:19.624Z,18.94
2018-04-28T16:50:46.243Z,18.82
2018-04-28T16:53:13.094Z,18.36
2018-04-28T16:55:39.733Z,18.34
2018-04-28T16:58:09.690Z,18.38
2018-04-28T17:00:36.362Z,18.47
2018-04-28T17:03:03.042Z,18.17
2018-04-28T17:05:30.356Z,18.11
2018-04-28T17:08:00.644Z,17.68
2018-04-28T17:10:27.392Z,17.88
2018-04-28T17:12:54.317Z,17.88
2018-04-28T17:15:20.935Z,17.88
2018-04-28T17:17:52.636Z,17.91
2018-04-28T17:20:19.374Z,17.45
2018-04-28T17:22:46.176Z,17.38
2018-04-28T17:25:12.902Z,17.24
2018-04-28T17:27:39.479Z,16.99
2018-04-28T17:30:06.506Z,17.63
2018-04-28T17:32:33.176Z,17.18
2018-04-28T17:34:59.850Z,16.78
2018-04-28T17:37:26.456Z,16.73
2018-04-28T17:39:57.052Z,16.74
2018-04-28T17:42:23.814Z,16.83
2018-04-28T17:44:50.506Z,16.71
2018-04-28T17:47:17.180Z,16.34
2018-04-28T17:49:47.297Z,16.98
2018-04-28T17:52:13.961Z,16.76
2018-04-28T17:54:40.664Z,16.79
2018-04-28T17:57:07.394Z,16.38
2018-04-28T17:59:38.845Z,16.62
2018-04-28T18:02:05.469Z,15.99
2018-04-28T18:04:32.109Z,16.45
2018-04-28T18:06:58.650Z,16.64
2018-04-28T18:09:25.522Z,16.46
2018-04-28T18:11:52.520Z,15.86
2018-04-28T18:14:19.134Z,16.23
2018-04-28T18:16:45.851Z,16.09
2018-04-28T18:19:15.586Z,16.01
2018-04-28T18:21:42.353Z,15.88
2018-04-28T18:24:09.106Z,16.00
2018-04-28T18:26:35.883Z,16.04
2018-04-28T18:29:03.646Z,15.80
2018-04-28T18:31:30.366Z,15.75
2018-04-28T18:33:57.068Z,15.65
2018-04-28T18:36:23.573Z,15.75
2018-04-28T18:38:51.449Z,15.93
2018-04-28T18:41:18.176Z,16.29
2018-04-28T18:43:44.833Z,16.35
2018-04-28T18:46:11.562Z,16.20
2018-04-28T18:48:39.510Z,15.74
2018-04-28T18:51:06.217Z,15.82
2018-04-28T18:53:32.791Z,15.89
2018-04-28T18:55:59.850Z,15.49
2018-04-28T18:58:29.522Z,15.73
2018-04-28T19:00:56.133Z,15.41
2018-04-28T19:03:23.232Z,15.68
2018-04-28T19:05:49.884Z,15.43
2018-04-28T19:08:20.441Z,15.40
2018-04-28T19:10:47.081Z,15.48
2018-04-28T19:13:13.874Z,15.45
2018-04-28T19:15:40.603Z,15.30
2018-04-28T19:18:17.665Z,15.60
2018-04-28T19:20:44.282Z,15.12
2018-04-28T19:23:10.966Z,14.93
2018-04-28T19:25:37.571Z,15.05
2018-04-28T19:28:07.579Z,15.16
2018-04-28T19:30:34.208Z,15.50
2018-04-28T19:33:00.958Z,15.19
2018-04-28T19:35:27.592Z,14.77
2018-04-28T19:38:04.345Z,14.87
2018-04-28T19:40:31.008Z,14.68
2018-04-28T19:42:57.787Z,15.01
2018-04-28T19:45:24.389Z,15.26
2018-04-28T19:47:54.211Z,15.15
2018-04-28T19:50:20.870Z,15.09
2018-04-28T19:52:50.826Z,14.91
2018-04-28T19:55:25.322Z,14.51
2018-04-28T19:57:52.823Z,14.45
2018-04-28T20:00:19.579Z,14.74
2018-04-28T20:02:46.255Z,14.60
2018-04-28T20:05:13.786Z,14.98
2018-04-28T20:07:40.717Z,15.43
2018-04-28T20:10:07.432Z,15.50
2018-04-28T20:12:34.043Z,15.40
2018-04-28T20:15:00.652Z,15.24
2018-04-28T20:17:27.382Z,15.39
2018-04-28T20:19:54.385Z,15.44
2018-04-28T20:22:33.008Z,15.29
2018-04-28T20:25:11.497Z,15.37
2018-04-28T20:27:47.029Z,15.14
2018-04-28T20:30:13.752Z,15.09
2018-04-28T20:32:40.963Z,15.09
2018-04-28T20:35:07.801Z,14.86
2018-04-28T20:37:34.691Z,15.00
2018-04-28T20:40:01.187Z,14.81
2018-04-28T20:42:27.938Z,14.46
2018-04-28T20:44:54.552Z,14.78
2018-04-28T20:47:21.427Z,14.71
2018-04-28T20:49:48.175Z,14.47
2018-04-28T20:52:15.137Z,14.51
2018-04-28T20:54:41.693Z,14.68
2018-04-28T20:57:08.617Z,14.52
2018-04-28T20:59:35.418Z,14.41
2018-04-28T21:02:02.043Z,14.34
2018-04-28T21:04:28.776Z,13.88
2018-04-28T21:06:55.782Z,13.78
2018-04-28T21:09:25.538Z,14.23
2018-04-28T21:11:52.499Z,14.13
2018-04-28T21:14:19.083Z,14.24
2018-04-28T21:16:45.866Z,14.25
2018-04-28T21:19:12.765Z,14.36
2018-04-28T21:21:39.486Z,14.39
2018-04-28T21:24:06.118Z,13.98
2018-04-28T21:26:32.621Z,14.17
2018-04-28T21:28:59.560Z,13.84
2018-04-28T21:31:26.265Z,13.85
2018-04-28T21:33:52.978Z,14.24
2018-04-28T21:36:19.710Z,14.09
2018-04-28T21:38:46.559Z,14.20
2018-04-28T21:41:13.403Z,14.13
2018-04-28T21:43:40.128Z,14.08
2018-04-28T21:46:06.830Z,14.11
2018-04-28T21:48:44.090Z,13.94
2018-04-28T21:51:11.086Z,13.71
2018-04-28T21:53:37.810Z,13.76
2018-04-28T21:56:04.539Z,13.96
2018-04-28T21:58:31.373Z,14.17
2018-04-28T22:00:58.019Z,13.97
2018-04-28T22:03:24.773Z,14.14
2018-04-28T22:05:51.405Z,13.86
2018-04-28T22:08:21.681Z,13.90
2018-04-28T22:10:48.398Z,14.01
2018-04-28T22:13:15.060Z,13.82
2018-04-28T22:15:42.028Z,13.50
2018-04-28T22:18:08.681Z,13.76
2018-04-28T22:20:35.394Z,13.66
2018-04-28T22:23:02.101Z,13.58
2018-04-28T22:25:29.053Z,13.72
2018-04-28T22:27:56.625Z,13.65
2018-04-28T22:30:23.261Z,13.70
2018-04-28T22:32:50.008Z,13.76
2018-04-28T22:35:16.693Z,13.67
2018-04-28T22:37:43.388Z,13.52
2018-04-28T22:40:09.948Z,13.56
2018-04-28T22:42:36.523Z,13.56
2018-04-28T22:45:03.075Z,13.50
2018-04-28T22:47:33.020Z,13.64
2018-04-28T22:49:59.559Z,13.70
2018-04-28T22:52:26.332Z,13.70
2018-04-28T22:54:52.872Z,13.60
2018-04-28T22:57:24.712Z,13.43
2018-04-28T22:59:51.666Z,13.38
2018-04-28T23:02:18.373Z,13.39
2018-04-28T23:04:45.086Z,13.14
2018-04-28T23:07:15.661Z,13.28
2018-04-28T23:09:42.436Z,13.26
2018-04-28T23:12:09.082Z,13.16
2018-04-28T23:14:35.810Z,12.94
2018-04-28T23:17:06.370Z,13.10
2018-04-28T23:19:33.051Z,13.05
2018-04-28T23:21:59.632Z,12.92
2018-04-28T23:24:26.357Z,12.82
2018-04-28T23:26:54.156Z,13.08
2018-04-28T23:29:20.777Z,12.89
2018-04-28T23:31:47.477Z,13.19
2018-04-28T23:34:14.277Z,13.18
2018-04-28T23:36:40.853Z,13.00
2018-04-28T23:39:07.502Z,12.93
2018-04-28T23:41:34.146Z,12.74
2018-04-28T23:44:00.809Z,12.71
2018-04-28T23:46:27.471Z,13.02
2018-04-28T23:49:00.726Z,12.90
2018-04-28T23:51:27.389Z,12.77
2018-04-28T23:53:54.133Z,12.91
2018-04-28T23:56:20.776Z,12.24
2018-04-28T23:58:50.696Z,12.66
